Time;durP1;ratioP1;P1;durP2;ratioP2;P2;SDS_P1;SDS_P2;PMS_P1;PMS_P2;Temp;Humidity;BMP_temperature;BMP_pressure;BME280_temperature;BME280_humidity;BME280_pressure;Samples;Min_cycle;Max_cycle;Signal;HPM_P1;HPM_P2
2023/09/05 00:01:45;;;;;;;4.10;1.83;;;18.10;93.60;;;;;;4978779;28;20070;-79
2023/09/05 00:04:13;;;;;;;3.40;2.00;;;18.10;93.60;;;;;;4971717;28;20031;-78
2023/09/05 00:06:39;;;;;;;2.45;1.73;;;18.10;93.10;;;;;;4969253;28;20402;-79
2023/09/05 00:09:05;;;;;;;2.90;1.48;;;18.30;93.40;;;;;;4969143;28;20174;-78
2023/09/05 00:11:31;;;;;;;2.45;1.67;;;18.30;93.20;;;;;;4973838;28;20031;-78
2023/09/05 00:13:57;;;;;;;2.13;1.88;;;18.40;92.90;;;;;;4984051;28;20043;-78
2023/09/05 00:16:22;;;;;;;2.53;1.55;;;18.50;92.60;;;;;;4969966;28;20538;-79
2023/09/05 00:18:48;;;;;;;2.53;1.70;;;18.40;92.50;;;;;;4969111;28;20037;-78
2023/09/05 00:21:18;;;;;;;1.52;1.40;;;18.30;92.50;;;;;;4968028;28;20064;-79
2023/09/05 00:23:44;;;;;;;2.55;1.85;;;18.40;92.30;;;;;;4970135;28;20046;-78
2023/09/05 00:26:10;;;;;;;2.28;1.65;;;18.50;92.20;;;;;;4967225;28;20043;-77
2023/09/05 00:28:35;;;;;;;3.83;1.75;;;18.70;91.90;;;;;;4969989;28;20643;-77
2023/09/05 00:31:01;;;;;;;3.00;1.95;;;18.60;91.60;;;;;;4951795;28;20064;-78
2023/09/05 00:33:29;;;;;;;2.58;1.85;;;18.80;91.80;;;;;;4986987;28;20031;-77
2023/09/05 00:35:54;;;;;;;6.30;1.90;;;18.70;91.60;;;;;;4965773;28;20420;-78
2023/09/05 00:38:22;;;;;;;1.60;1.50;;;18.80;91.50;;;;;;4968200;28;20035;-78
2023/09/05 00:40:51;;;;;;;2.13;1.88;;;18.90;91.60;;;;;;4969120;28;20057;-78
2023/09/05 00:43:20;;;;;;;2.50;1.63;;;18.80;91.50;;;;;;4957031;28;20487;-78
2023/09/05 00:45:49;;;;;;;1.75;1.40;;;19.00;91.50;;;;;;4969474;28;20027;-78
2023/09/05 00:48:27;;;;;;;3.80;1.92;;;19.00;91.30;;;;;;4968313;28;20440;-78
2023/09/05 00:50:58;;;;;;;2.38;1.40;;;18.80;91.30;;;;;;4969757;28;20042;-78
2023/09/05 00:53:24;;;;;;;3.20;1.55;;;18.90;91.10;;;;;;4967876;28;20035;-78
2023/09/05 00:55:50;;;;;;;3.88;1.85;;;18.80;91.10;;;;;;4969923;28;20748;-79
2023/09/05 00:58:16;;;;;;;1.83;1.40;;;18.90;91.10;;;;;;4970941;28;20030;-78
2023/09/05 01:00:42;;;;;;;1.85;1.58;;;19.00;91.20;;;;;;4983780;28;20042;-78
2023/09/05 01:03:08;;;;;;;3.63;1.58;;;18.90;90.90;;;;;;4972498;28;20483;-78
2023/09/05 01:05:34;;;;;;;5.93;1.67;;;19.00;90.80;;;;;;4954490;28;20398;-78
2023/09/05 01:08:15;;;;;;;1.75;1.50;;;18.90;90.90;;;;;;4967718;28;20173;-79
2023/09/05 01:11:14;;;;;;;4.13;2.03;;;18.90;91.30;;;;;;4949954;28;20031;-79
2023/09/05 01:13:41;;;;;;;3.22;2.00;;;18.80;91.00;;;;;;4961242;28;20042;-78
2023/09/05 01:16:08;;;;;;;3.25;1.75;;;18.70;91.10;;;;;;4952626;28;20035;-78
2023/09/05 01:18:34;;;;;;;2.78;1.77;;;18.50;91.20;;;;;;4951372;28;20065;-79
2023/09/05 01:21:06;;;;;;;1.90;1.50;;;18.50;91.50;;;;;;4967524;28;20038;-79
2023/09/05 01:23:38;;;;;;;1.85;1.45;;;18.50;91.50;;;;;;4970339;28;20478;-78
2023/09/05 01:26:04;;;;;;;4.80;1.92;;;18.50;91.70;;;;;;4969023;28;20097;-78
2023/09/05 01:28:29;;;;;;;3.08;1.70;;;18.30;92.10;;;;;;4967459;28;20529;-78
2023/09/05 01:30:55;;;;;;;2.70;1.65;;;18.30;91.80;;;;;;4983174;28;20081;-78
2023/09/05 01:33:21;;;;;;;2.45;1.60;;;18.30;91.90;;;;;;4971590;28;20499;-78
2023/09/05 01:35:46;;;;;;;2.22;1.77;;;18.70;91.40;;;;;;4965957;28;20141;-77
2023/09/05 01:38:12;;;;;;;2.78;2.05;;;18.60;91.70;;;;;;4970758;28;20486;-78
2023/09/05 01:40:37;;;;;;;4.90;1.58;;;18.40;91.50;;;;;;4954090;28;20601;-78
2023/09/05 01:43:03;;;;;;;2.10;1.60;;;18.40;91.40;;;;;;4966912;28;20037;-77
2023/09/05 01:45:28;;;;;;;2.38;1.65;;;18.60;91.50;;;;;;4967586;28;20047;-78
2023/09/05 01:47:54;;;;;;;5.30;1.65;;;18.50;91.50;;;;;;4967349;28;20042;-78
2023/09/05 01:50:21;;;;;;;1.70;1.30;;;18.60;91.20;;;;;;4967060;28;20170;-79
2023/09/05 01:52:46;;;;;;;2.72;1.60;;;18.60;91.20;;;;;;4970832;28;20038;-78
2023/09/05 01:55:12;;;;;;;2.60;1.50;;;18.80;90.80;;;;;;4969584;28;20023;-78
2023/09/05 01:57:38;;;;;;;4.93;1.60;;;18.80;90.60;;;;;;4968180;28;20026;-77
2023/09/05 02:00:03;;;;;;;2.00;1.50;;;18.80;90.60;;;;;;4971963;28;20692;-78
2023/09/05 02:02:29;;;;;;;2.38;1.25;;;18.70;90.70;;;;;;4969604;28;20037;-78
2023/09/05 02:04:55;;;;;;;2.80;1.80;;;18.70;91.00;;;;;;4948506;28;20049;-77
2023/09/05 02:07:20;;;;;;;2.33;1.50;;;18.70;90.60;;;;;;4966505;28;20102;-79
2023/09/05 02:09:46;;;;;;;4.53;1.50;;;18.70;90.70;;;;;;4965220;28;20209;-78
2023/09/05 02:12:12;;;;;;;3.63;1.70;;;18.70;90.60;;;;;;4966377;28;20046;-78
2023/09/05 02:14:37;;;;;;;2.13;1.60;;;18.60;90.90;;;;;;4964874;28;20042;-77
2023/09/05 02:17:03;;;;;;;2.17;1.80;;;18.60;91.10;;;;;;4968653;28;20545;-78
2023/09/05 02:19:29;;;;;;;1.98;1.27;;;18.60;90.60;;;;;;4968474;28;20503;-78
2023/09/05 02:21:55;;;;;;;2.45;1.65;;;18.60;90.90;;;;;;4968245;28;20049;-77
2023/09/05 02:24:21;;;;;;;2.50;1.42;;;18.70;91.00;;;;;;4968048;28;20414;-78
2023/09/05 02:26:46;;;;;;;2.08;1.38;;;18.70;90.70;;;;;;4969333;28;20034;-77
2023/09/05 02:29:12;;;;;;;1.58;1.30;;;18.60;90.90;;;;;;4969037;28;20085;-78
2023/09/05 02:31:37;;;;;;;2.38;1.60;;;18.60;90.90;;;;;;4968004;28;20544;-78
2023/09/05 02:34:03;;;;;;;1.40;1.30;;;18.50;90.90;;;;;;4970555;28;20562;-78
2023/09/05 02:36:30;;;;;;;2.63;1.70;;;18.60;90.90;;;;;;4970212;28;20112;-77
2023/09/05 02:38:56;;;;;;;3.63;1.40;;;18.70;90.70;;;;;;4957370;28;20034;-77
2023/09/05 02:41:22;;;;;;;1.67;1.30;;;18.70;90.60;;;;;;4973344;28;20031;-77
2023/09/05 02:43:48;;;;;;;1.90;1.48;;;18.70;90.30;;;;;;4957944;28;20085;-78
2023/09/05 02:46:14;;;;;;;2.78;1.52;;;18.70;90.40;;;;;;4957109;28;20038;-78
2023/09/05 02:48:40;;;;;;;2.92;1.73;;;18.70;90.50;;;;;;4972780;28;20688;-78
2023/09/05 02:51:07;;;;;;;4.15;1.65;;;18.70;90.60;;;;;;4971713;28;20071;-78
2023/09/05 02:53:33;;;;;;;2.25;1.40;;;18.60;90.60;;;;;;4975593;28;20089;-77
2023/09/05 02:55:58;;;;;;;2.72;1.50;;;18.30;90.80;;;;;;4969302;28;20136;-77
2023/09/05 02:58:28;;;;;;;2.65;1.90;;;18.50;90.70;;;;;;4972030;28;20031;-78
2023/09/05 03:01:07;;;;;;;2.13;1.60;;;18.50;90.90;;;;;;4954349;28;20710;-78
2023/09/05 03:03:32;;;;;;;3.40;1.73;;;18.60;90.80;;;;;;4972870;28;20026;-78
2023/09/05 03:06:09;;;;;;;3.33;1.30;;;18.50;91.10;;;;;;4968173;28;20094;-77
2023/09/05 03:08:36;;;;;;;2.15;1.40;;;18.30;91.20;;;;;;4973132;28;20030;-77
2023/09/05 03:11:02;;;;;;;3.42;1.67;;;18.40;91.30;;;;;;4954989;28;20529;-77
2023/09/05 03:13:27;;;;;;;2.33;1.40;;;18.30;91.50;;;;;;4956737;28;20039;-77
2023/09/05 03:15:53;;;;;;;3.75;1.88;;;18.10;91.60;;;;;;4956231;28;20046;-77
2023/09/05 03:18:18;;;;;;;2.97;1.73;;;18.10;91.90;;;;;;4955927;28;20035;-77
2023/09/05 03:20:45;;;;;;;1.80;1.50;;;18.10;91.90;;;;;;4969264;28;20057;-77
2023/09/05 03:23:11;;;;;;;2.58;1.63;;;17.90;91.90;;;;;;4982705;28;20873;-77
2023/09/05 03:25:37;;;;;;;2.28;1.60;;;18.00;92.00;;;;;;4975763;28;20030;-77
2023/09/05 03:28:03;;;;;;;1.80;1.65;;;18.10;92.10;;;;;;4976446;28;20108;-78
2023/09/05 03:30:28;;;;;;;2.05;1.50;;;18.00;92.00;;;;;;4960835;28;20034;-78
2023/09/05 03:32:54;;;;;;;3.20;1.60;;;17.90;92.40;;;;;;4956825;28;20034;-78
2023/09/05 03:35:20;;;;;;;2.28;1.77;;;18.00;92.00;;;;;;4969483;28;20057;-78
2023/09/05 03:37:45;;;;;;;3.70;2.40;;;18.10;91.80;;;;;;4967579;28;20031;-77
2023/09/05 03:40:12;;;;;;;3.28;2.50;;;17.80;92.40;;;;;;4972860;28;20533;-80
2023/09/05 03:42:38;;;;;;;2.95;2.28;;;17.70;92.90;;;;;;4974306;28;20402;-77
2023/09/05 03:45:04;;;;;;;3.28;1.92;;;17.60;92.60;;;;;;4958712;28;20035;-77
2023/09/05 03:47:30;;;;;;;4.28;2.78;;;17.40;93.20;;;;;;4975951;28;20113;-77
2023/09/05 03:49:55;;;;;;;3.35;2.35;;;17.50;93.00;;;;;;4954958;28;20562;-78
2023/09/05 03:52:21;;;;;;;2.95;2.28;;;17.50;92.70;;;;;;4972511;28;20118;-77
2023/09/05 03:54:46;;;;;;;3.47;2.72;;;17.30;93.30;;;;;;4974099;28;20039;-77
2023/09/05 03:57:12;;;;;;;2.90;2.63;;;17.20;93.70;;;;;;4966894;28;20126;-77
2023/09/05 03:59:38;;;;;;;4.03;2.70;;;17.10;93.80;;;;;;4955981;28;20105;-77
2023/09/05 04:02:03;;;;;;;4.78;3.05;;;16.90;93.90;;;;;;4957362;28;20133;-77
2023/09/05 04:04:29;;;;;;;3.90;2.75;;;16.90;94.40;;;;;;4972100;28;20035;-77
2023/09/05 04:06:54;;;;;;;3.78;2.80;;;16.90;94.30;;;;;;4971452;28;20034;-77
2023/09/05 04:09:20;;;;;;;2.92;2.22;;;17.00;94.00;;;;;;4974519;28;20483;-78
2023/09/05 04:11:45;;;;;;;3.28;2.67;;;17.10;93.70;;;;;;4972559;28;20400;-77
2023/09/05 04:14:11;;;;;;;6.60;3.13;;;17.10;94.00;;;;;;4972545;28;20565;-78
2023/09/05 04:16:36;;;;;;;6.38;2.78;;;17.00;93.10;;;;;;4970133;28;20038;-77
2023/09/05 04:19:02;;;;;;;3.40;2.13;;;16.90;93.30;;;;;;4970993;28;20019;-77
2023/09/05 04:21:28;;;;;;;3.30;2.92;;;16.80;93.80;;;;;;4954359;28;20045;-78
2023/09/05 04:23:53;;;;;;;5.10;3.50;;;16.70;93.90;;;;;;4974271;28;20070;-78
2023/09/05 04:26:21;;;;;;;5.55;2.97;;;16.60;93.50;;;;;;4971855;28;20222;-78
2023/09/05 04:28:47;;;;;;;5.68;3.38;;;16.50;94.10;;;;;;4968375;28;20582;-78
2023/09/05 04:31:18;;;;;;;4.68;3.30;;;16.50;94.90;;;;;;4973417;28;20031;-77
2023/09/05 04:33:44;;;;;;;9.63;3.65;;;16.40;94.30;;;;;;4969494;28;20081;-78
2023/09/05 04:36:09;;;;;;;8.20;3.67;;;16.30;95.90;;;;;;4971240;28;20031;-79
2023/09/05 04:38:35;;;;;;;4.93;3.30;;;16.30;94.80;;;;;;4975846;28;20034;-77
2023/09/05 04:41:01;;;;;;;5.90;3.70;;;16.30;95.70;;;;;;4969345;28;20034;-78
2023/09/05 04:43:27;;;;;;;5.03;3.15;;;16.30;95.30;;;;;;4973534;28;20038;-78
2023/09/05 04:45:56;;;;;;;3.42;3.13;;;16.20;95.10;;;;;;4970736;28;20509;-79
2023/09/05 04:48:25;;;;;;;5.65;2.95;;;16.20;95.10;;;;;;4973419;28;21099;-78
2023/09/05 04:50:51;;;;;;;5.40;2.90;;;16.20;95.30;;;;;;4952201;28;20630;-77
2023/09/05 04:53:16;;;;;;;3.50;2.95;;;16.00;95.10;;;;;;4970595;28;20037;-78
2023/09/05 04:55:42;;;;;;;7.32;3.35;;;16.00;96.20;;;;;;4971889;28;20034;-77
2023/09/05 04:58:08;;;;;;;4.88;3.03;;;15.90;95.80;;;;;;4951617;28;20038;-77
2023/09/05 05:00:34;;;;;;;8.45;3.33;;;15.90;95.90;;;;;;4971005;28;20062;-78
2023/09/05 05:03:00;;;;;;;5.05;3.35;;;15.90;96.80;;;;;;4971091;28;20081;-79
2023/09/05 05:05:25;;;;;;;10.35;3.40;;;15.90;96.40;;;;;;4968145;28;20046;-78
2023/09/05 05:07:51;;;;;;;5.50;3.40;;;15.90;97.00;;;;;;4969255;28;20122;-78
2023/09/05 05:10:16;;;;;;;6.53;3.00;;;15.90;96.40;;;;;;4951904;28;20041;-79
2023/09/05 05:12:42;;;;;;;4.57;3.28;;;15.90;96.80;;;;;;4970909;28;20031;-77
2023/09/05 05:15:08;;;;;;;5.80;3.90;;;15.80;97.60;;;;;;4972630;28;20031;-78
2023/09/05 05:17:35;;;;;;;7.07;4.22;;;15.70;96.50;;;;;;4951952;28;20091;-77
2023/09/05 05:20:00;;;;;;;5.82;3.15;;;15.70;99.00;;;;;;4971226;28;20057;-77
2023/09/05 05:22:26;;;;;;;3.92;2.90;;;15.80;96.60;;;;;;4969978;28;20128;-78
2023/09/05 05:24:51;;;;;;;5.68;4.10;;;15.90;95.80;;;;;;4953204;28;20465;-77
2023/09/05 05:27:17;;;;;;;6.15;3.30;;;15.90;96.80;;;;;;4969185;28;20052;-78
2023/09/05 05:29:43;;;;;;;5.65;3.75;;;15.90;95.40;;;;;;4968602;28;20558;-77
2023/09/05 05:32:09;;;;;;;5.90;4.03;;;16.00;96.80;;;;;;4966674;28;20673;-78
2023/09/05 05:34:34;;;;;;;7.63;4.00;;;16.00;97.80;;;;;;4972266;28;20038;-78
2023/09/05 05:37:01;;;;;;;7.05;4.00;;;15.90;98.00;;;;;;4971791;28;20043;-77
2023/09/05 05:39:26;;;;;;;8.27;4.50;;;15.90;97.40;;;;;;4968121;28;20083;-77
2023/09/05 05:41:52;;;;;;;8.05;4.60;;;16.00;98.10;;;;;;4953667;28;20031;-77
2023/09/05 05:44:17;;;;;;;6.78;4.50;;;16.10;98.30;;;;;;4962739;28;20049;-78
2023/09/05 05:46:43;;;;;;;6.85;3.85;;;16.10;97.10;;;;;;4953664;28;20054;-76
2023/09/05 05:49:09;;;;;;;7.82;4.03;;;16.20;98.00;;;;;;4984580;28;20061;-76
2023/09/05 05:51:35;;;;;;;13.32;4.18;;;16.20;98.10;;;;;;5000117;28;20077;-77
2023/09/05 05:54:01;;;;;;;6.68;3.60;;;16.30;98.30;;;;;;4967523;28;20027;-76
2023/09/05 05:56:26;;;;;;;7.93;4.30;;;16.50;99.90;;;;;;4967335;28;20061;-76
2023/09/05 05:58:52;;;;;;;9.43;3.47;;;16.50;99.90;;;;;;4974296;28;20053;-76
2023/09/05 06:01:18;;;;;;;12.20;3.88;;;16.60;98.70;;;;;;4966943;28;20447;-76
2023/09/05 06:03:43;;;;;;;7.30;3.58;;;16.70;99.00;;;;;;4998570;28;20439;-76
2023/09/05 06:06:09;;;;;;;6.45;3.47;;;16.80;99.20;;;;;;4951704;28;20034;-76
2023/09/05 06:08:35;;;;;;;8.98;3.90;;;16.90;99.90;;;;;;4969914;28;20063;-78
2023/09/05 06:11:00;;;;;;;6.72;3.10;;;17.00;98.90;;;;;;4955388;28;20042;-77
2023/09/05 06:13:26;;;;;;;6.60;2.97;;;17.10;99.40;;;;;;4971268;28;20155;-78
2023/09/05 06:15:52;;;;;;;6.32;2.90;;;17.20;98.20;;;;;;4968169;28;20038;-78
2023/09/05 06:18:17;;;;;;;5.93;3.17;;;17.30;98.50;;;;;;4953419;28;20031;-78
2023/09/05 06:20:43;;;;;;;4.85;2.85;;;17.40;98.50;;;;;;4956293;28;20049;-78
2023/09/05 06:23:09;;;;;;;3.28;2.78;;;17.40;98.50;;;;;;4952239;28;20039;-78
2023/09/05 06:25:35;;;;;;;5.78;2.50;;;17.50;98.30;;;;;;4962784;28;20113;-78
2023/09/05 06:28:01;;;;;;;6.07;2.80;;;17.60;98.00;;;;;;4966493;28;20130;-78
2023/09/05 06:30:26;;;;;;;3.63;2.28;;;17.80;97.90;;;;;;4971846;28;20375;-77
2023/09/05 06:32:52;;;;;;;3.83;2.47;;;17.90;98.40;;;;;;4948470;28;20043;-80
2023/09/05 06:35:17;;;;;;;4.60;2.65;;;18.00;98.20;;;;;;4961305;28;20038;-79
2023/09/05 06:37:43;;;;;;;4.07;2.75;;;18.10;97.30;;;;;;4960202;28;20043;-79
2023/09/05 06:40:14;;;;;;;5.55;2.72;;;18.20;97.80;;;;;;4963282;28;20035;-79
2023/09/05 06:42:40;;;;;;;5.13;3.22;;;18.40;97.60;;;;;;4978814;28;20027;-78
2023/09/05 06:45:06;;;;;;;4.97;2.45;;;18.30;97.70;;;;;;4968196;28;20030;-79
2023/09/05 06:47:31;;;;;;;3.15;2.08;;;18.50;97.50;;;;;;4968731;28;20541;-79
2023/09/05 06:49:57;;;;;;;5.20;2.72;;;18.70;96.70;;;;;;4969261;28;20038;-79
2023/09/05 06:52:23;;;;;;;4.25;2.55;;;18.80;97.70;;;;;;4953793;28;20065;-79
2023/09/05 06:54:48;;;;;;;3.13;2.65;;;18.90;96.60;;;;;;4950366;28;20035;-78
2023/09/05 06:57:15;;;;;;;11.75;3.35;;;19.00;96.90;;;;;;4967285;28;20061;-79
2023/09/05 06:59:41;;;;;;;4.47;3.25;;;19.00;97.10;;;;;;4964765;28;20074;-80
2023/09/05 07:02:07;;;;;;;3.80;2.63;;;19.20;96.70;;;;;;4967090;28;20055;-80
2023/09/05 07:04:36;;;;;;;6.85;2.80;;;19.30;96.70;;;;;;4969181;28;20027;-80
2023/09/05 07:07:03;;;;;;;4.68;2.42;;;19.40;96.70;;;;;;4965363;28;20038;-78
2023/09/05 07:09:29;;;;;;;3.67;2.67;;;19.80;96.40;;;;;;4966724;28;20027;-78
2023/09/05 07:11:54;;;;;;;4.57;2.50;;;19.90;96.20;;;;;;4967615;28;20509;-77
2023/09/05 07:14:20;;;;;;;4.25;2.45;;;20.10;96.60;;;;;;4966271;28;20033;-80
2023/09/05 07:16:45;;;;;;;4.35;1.90;;;20.40;96.10;;;;;;4963268;28;20031;-77
2023/09/05 07:19:11;;;;;;;5.40;2.22;;;20.40;95.40;;;;;;4965811;28;20031;-79
2023/09/05 07:21:40;;;;;;;3.47;2.33;;;20.50;95.40;;;;;;4960031;28;20039;-77
2023/09/05 07:24:07;;;;;;;3.90;2.40;;;20.50;95.50;;;;;;4970726;28;20438;-77
2023/09/05 07:26:33;;;;;;;4.40;2.38;;;20.90;95.70;;;;;;4970518;28;20394;-77
2023/09/05 07:28:58;;;;;;;7.35;2.30;;;21.00;94.90;;;;;;4968764;28;20035;-78
2023/09/05 07:31:30;;;;;;;3.70;2.35;;;21.00;94.90;;;;;;4970812;28;20038;-78
2023/09/05 07:33:55;;;;;;;3.38;2.13;;;21.30;94.70;;;;;;4969236;28;20149;-78
2023/09/05 07:36:21;;;;;;;2.95;2.15;;;21.50;94.60;;;;;;4972445;28;20743;-78
2023/09/05 07:38:47;;;;;;;3.85;2.17;;;21.70;94.40;;;;;;4973067;28;20102;-78
2023/09/05 07:41:12;;;;;;;7.80;2.40;;;22.00;93.70;;;;;;4957423;28;20039;-78
2023/09/05 07:43:38;;;;;;;2.05;1.85;;;22.20;93.10;;;;;;4953489;28;20037;-77
2023/09/05 07:46:03;;;;;;;2.60;2.10;;;22.30;93.00;;;;;;4971933;28;20033;-78
2023/09/05 07:48:29;;;;;;;4.45;2.22;;;22.60;92.60;;;;;;4973552;28;20521;-79
2023/09/05 07:51:04;;;;;;;2.08;1.77;;;22.80;92.40;;;;;;4952646;28;20402;-77
2023/09/05 07:53:32;;;;;;;3.63;1.83;;;23.10;91.90;;;;;;4968685;28;20051;-78
2023/09/05 07:55:57;;;;;;;2.17;1.92;;;23.30;91.40;;;;;;4981506;28;20106;-78
2023/09/05 07:58:23;;;;;;;4.20;1.90;;;23.40;91.00;;;;;;4953501;28;20524;-80
2023/09/05 08:00:49;;;;;;;2.08;1.80;;;23.60;90.50;;;;;;4969007;28;20099;-78
2023/09/05 08:03:16;;;;;;;4.53;2.17;;;23.70;90.50;;;;;;4969622;28;20081;-78
2023/09/05 08:05:41;;;;;;;3.05;1.80;;;23.70;90.60;;;;;;4967943;28;20407;-78
2023/09/05 08:08:07;;;;;;;1.98;1.80;;;23.70;90.40;;;;;;4971085;28;20042;-78
2023/09/05 08:10:33;;;;;;;3.15;2.00;;;23.90;89.90;;;;;;4970466;28;20026;-77
2023/09/05 08:12:59;;;;;;;5.70;1.98;;;24.00;90.30;;;;;;4957942;28;20506;-78
2023/09/05 08:15:25;;;;;;;2.45;1.83;;;24.30;88.50;;;;;;4953499;28;20038;-78
2023/09/05 08:17:51;;;;;;;2.92;1.58;;;24.50;87.40;;;;;;4967604;28;20545;-78
2023/09/05 08:20:17;;;;;;;2.83;1.92;;;24.60;86.90;;;;;;4970522;28;20129;-78
2023/09/05 08:22:45;;;;;;;2.38;1.45;;;24.70;86.30;;;;;;4977007;28;20031;-78
2023/09/05 08:25:15;;;;;;;3.53;1.70;;;24.60;87.00;;;;;;4972188;28;20214;-78
2023/09/05 08:27:41;;;;;;;2.33;1.80;;;24.70;86.80;;;;;;4968022;28;20023;-78
2023/09/05 08:30:11;;;;;;;1.80;1.50;;;25.10;86.20;;;;;;4970219;28;20486;-78
2023/09/05 08:32:39;;;;;;;2.00;1.65;;;25.20;86.10;;;;;;4973895;28;20042;-78
2023/09/05 08:35:11;;;;;;;3.20;1.60;;;25.60;84.40;;;;;;4969382;28;20038;-78
2023/09/05 08:37:37;;;;;;;2.35;1.55;;;25.30;84.90;;;;;;4955347;28;20462;-78
2023/09/05 08:40:06;;;;;;;1.90;1.50;;;25.60;84.70;;;;;;4970126;28;20094;-79
2023/09/05 08:42:31;;;;;;;2.55;1.73;;;25.50;85.10;;;;;;4955003;28;20030;-78
2023/09/05 08:45:00;;;;;;;3.33;1.60;;;25.80;84.20;;;;;;4975614;28;20808;-79
2023/09/05 08:47:31;;;;;;;3.20;1.23;;;25.80;83.80;;;;;;4968668;28;20081;-78
2023/09/05 08:49:59;;;;;;;3.15;1.35;;;26.00;84.20;;;;;;4965445;28;20026;-78
2023/09/05 08:52:33;;;;;;;5.85;2.05;;;26.10;83.40;;;;;;4966803;28;20046;-78
2023/09/05 08:54:59;;;;;;;4.18;1.42;;;26.10;84.40;;;;;;4949211;28;20039;-77
2023/09/05 08:57:25;;;;;;;2.20;1.60;;;26.50;82.20;;;;;;4971753;28;20034;-78
2023/09/05 08:59:52;;;;;;;1.92;1.60;;;26.40;83.00;;;;;;4950762;28;20043;-79
2023/09/05 09:02:17;;;;;;;3.78;1.27;;;26.60;83.10;;;;;;4965014;28;20027;-78
2023/09/05 09:04:53;;;;;;;3.63;1.60;;;27.00;80.20;;;;;;4970588;28;20129;-78
2023/09/05 09:07:18;;;;;;;3.25;1.40;;;27.30;79.30;;;;;;4969811;28;20494;-78
2023/09/05 09:09:45;;;;;;;1.67;1.30;;;27.10;79.80;;;;;;4968279;28;20082;-78
2023/09/05 09:12:11;;;;;;;1.35;1.08;;;27.20;79.20;;;;;;4968350;28;20037;-79
2023/09/05 09:14:37;;;;;;;3.78;1.23;;;27.20;79.80;;;;;;4967474;28;20038;-78
2023/09/05 09:17:04;;;;;;;1.27;1.15;;;27.30;80.00;;;;;;4971800;28;20402;-79
2023/09/05 09:19:30;;;;;;;2.75;1.20;;;27.50;79.90;;;;;;4970674;28;20035;-79
2023/09/05 09:22:01;;;;;;;2.85;1.33;;;27.70;76.90;;;;;;4971417;28;20118;-79
2023/09/05 09:24:35;;;;;;;4.40;1.48;;;27.50;79.50;;;;;;4970844;28;20474;-79
2023/09/05 09:27:02;;;;;;;1.63;1.33;;;27.70;80.00;;;;;;4968777;28;20431;-79
2023/09/05 09:29:28;;;;;;;3.30;1.40;;;28.00;77.80;;;;;;4970362;28;20039;-80
2023/09/05 09:32:03;;;;;;;2.75;1.77;;;28.00;78.40;;;;;;4965846;28;20050;-80
2023/09/05 09:34:29;;;;;;;1.55;1.17;;;28.00;78.30;;;;;;4972641;28;20039;-80
2023/09/05 09:36:54;;;;;;;1.50;1.40;;;28.30;77.60;;;;;;4972192;28;20043;-79
2023/09/05 09:39:20;;;;;;;2.67;1.27;;;28.30;77.80;;;;;;4974517;28;20046;-80
2023/09/05 09:41:47;;;;;;;1.50;1.40;;;28.10;78.90;;;;;;4968635;28;20549;-80
2023/09/05 09:44:25;;;;;;;4.72;1.02;;;28.60;76.70;;;;;;4967167;28;20161;-80
2023/09/05 09:46:52;;;;;;;1.42;1.20;;;28.40;77.60;;;;;;4965802;28;20577;-80
2023/09/05 09:49:18;;;;;;;2.17;1.67;;;28.10;78.50;;;;;;4953847;28;20502;-80
2023/09/05 09:51:44;;;;;;;1.30;1.20;;;28.60;77.70;;;;;;4968973;28;20376;-81
2023/09/05 09:54:09;;;;;;;2.13;1.20;;;28.60;78.10;;;;;;4967867;28;20043;-80
2023/09/05 09:56:35;;;;;;;2.63;0.95;;;28.90;77.30;;;;;;4954581;28;20034;-81
2023/09/05 09:59:00;;;;;;;2.17;1.20;;;29.40;75.90;;;;;;4966997;28;20086;-81
2023/09/05 10:01:26;;;;;;;3.78;1.27;;;29.00;77.70;;;;;;4971848;28;20040;-81
2023/09/05 10:03:53;;;;;;;2.17;1.35;;;29.30;76.00;;;;;;4968278;28;20518;-81
2023/09/05 10:06:19;;;;;;;2.25;1.38;;;29.60;76.10;;;;;;4966295;28;20034;-81
2023/09/05 10:08:44;;;;;;;1.17;1.00;;;29.50;76.20;;;;;;4968436;28;20089;-80
2023/09/05 10:11:10;;;;;;;1.75;1.27;;;29.70;75.40;;;;;;4949980;28;20444;-81
2023/09/05 10:13:36;;;;;;;1.95;1.20;;;30.40;74.60;;;;;;4969099;28;20044;-81
2023/09/05 10:16:02;;;;;;;2.10;1.30;;;29.90;76.20;;;;;;4967670;28;20042;-81
2023/09/05 10:18:31;;;;;;;1.33;1.20;;;30.10;73.90;;;;;;4967930;28;20030;-81
2023/09/05 10:21:00;;;;;;;2.47;1.10;;;30.20;73.70;;;;;;4966591;28;20491;-82
2023/09/05 10:23:27;;;;;;;1.67;0.95;;;30.20;74.40;;;;;;4968948;28;20039;-81
2023/09/05 10:25:54;;;;;;;2.75;1.20;;;30.40;72.80;;;;;;4968110;28;20089;-83
2023/09/05 10:28:19;;;;;;;1.10;1.02;;;30.10;72.90;;;;;;4970646;28;20046;-82
2023/09/05 10:30:49;;;;;;;1.38;1.17;;;30.70;72.40;;;;;;4952078;28;20046;-82
2023/09/05 10:33:15;;;;;;;1.77;1.08;;;30.50;72.70;;;;;;4954700;28;20545;-83
2023/09/05 10:35:44;;;;;;;2.22;1.02;;;30.70;73.10;;;;;;4957965;28;20046;-83
2023/09/05 10:38:12;;;;;;;1.00;0.90;;;30.60;72.20;;;;;;4990677;28;20081;-84
2023/09/05 10:40:38;;;;;;;2.45;0.80;;;30.60;71.70;;;;;;4974708;28;20411;-83
2023/09/05 10:43:08;;;;;;;3.13;1.42;;;30.90;72.30;;;;;;4975771;28;20030;-83
2023/09/05 10:45:35;;;;;;;1.30;1.00;;;31.20;70.80;;;;;;4972591;28;20034;-84
2023/09/05 10:48:09;;;;;;;2.45;1.10;;;31.30;69.60;;;;;;4969734;28;20035;-84
2023/09/05 10:51:02;;;;;;;0.70;0.70;;;31.50;70.00;;;;;;4972849;28;20030;-82
2023/09/05 10:53:28;;;;;;;2.85;1.20;;;31.50;70.20;;;;;;4984178;28;20031;-84
2023/09/05 10:55:54;;;;;;;0.98;0.90;;;31.70;69.80;;;;;;4976161;28;20050;-83
2023/09/05 10:58:56;;;;;;;1.48;1.10;;;32.00;70.20;;;;;;4970082;28;20043;-82
2023/09/05 11:01:31;;;;;;;1.65;0.98;;;32.00;69.30;;;;;;4953799;28;20130;-82
2023/09/05 11:04:03;;;;;;;;;;;32.70;68.50;;;;;;4973862;28;20035;-82
2023/09/05 11:06:32;;;;;;;2.35;1.30;;;32.60;68.10;;;;;;4975447;28;20449;-83
2023/09/05 11:09:04;;;;;;;1.38;1.20;;;32.70;69.00;;;;;;4971990;28;20414;-82
2023/09/05 11:11:37;;;;;;;1.17;0.93;;;32.30;70.70;;;;;;4972977;28;20075;-82
2023/09/05 11:14:03;;;;;;;0.82;0.80;;;32.40;70.80;;;;;;4973766;28;20043;-80
2023/09/05 11:16:42;;;;;;;2.00;1.00;;;32.50;70.90;;;;;;4975000;28;20069;-82
2023/09/05 11:19:07;;;;;;;0.82;0.77;;;32.70;67.90;;;;;;4974433;28;20471;-81
2023/09/05 11:21:33;;;;;;;1.10;0.82;;;32.90;66.00;;;;;;4982551;28;20038;-81
2023/09/05 11:23:59;;;;;;;0.98;0.80;;;32.40;66.90;;;;;;4956318;28;20066;-81
2023/09/05 11:26:24;;;;;;;1.05;0.95;;;32.90;68.70;;;;;;4970585;28;20055;-81
2023/09/05 11:28:51;;;;;;;1.25;1.10;;;33.40;67.60;;;;;;4956034;28;20057;-83
2023/09/05 11:31:17;;;;;;;1.23;1.13;;;33.10;66.90;;;;;;4974424;28;20970;-83
2023/09/05 11:33:44;;;;;;;1.55;1.00;;;33.30;66.30;;;;;;4972235;28;20070;-81
2023/09/05 11:36:10;;;;;;;0.90;0.80;;;33.60;65.20;;;;;;4969023;28;20085;-80
2023/09/05 11:38:49;;;;;;;0.70;0.70;;;33.50;66.40;;;;;;4972300;28;20042;-83
2023/09/05 11:41:15;;;;;;;1.83;0.82;;;33.70;66.50;;;;;;4969896;28;20046;-81
2023/09/05 11:43:52;;;;;;;1.02;1.00;;;33.70;65.20;;;;;;4954302;28;20494;-82
2023/09/05 11:46:19;;;;;;;1.20;1.10;;;33.60;64.30;;;;;;4967065;28;20031;-82
2023/09/05 11:48:45;;;;;;;0.80;0.80;;;33.50;66.50;;;;;;4973934;28;20122;-82
2023/09/05 11:51:14;;;;;;;3.72;1.15;;;32.90;68.30;;;;;;4971930;28;20085;-82
2023/09/05 11:53:43;;;;;;;2.88;0.80;;;33.50;67.20;;;;;;4972597;28;20039;-81
2023/09/05 11:56:09;;;;;;;1.10;0.98;;;33.60;65.90;;;;;;4958512;28;20403;-82
2023/09/05 11:58:34;;;;;;;2.25;0.68;;;33.70;65.60;;;;;;4976036;28;20409;-82
2023/09/05 12:01:00;;;;;;;1.20;1.00;;;34.40;64.80;;;;;;4974428;28;20039;-83
2023/09/05 12:03:28;;;;;;;0.98;0.70;;;33.70;67.60;;;;;;4954948;28;20542;-83
2023/09/05 12:05:53;;;;;;;2.85;1.17;;;33.50;64.10;;;;;;4972884;28;20065;-83
2023/09/05 12:08:20;;;;;;;1.73;0.85;;;33.10;66.50;;;;;;4972619;28;20562;-82
2023/09/05 12:10:55;;;;;;;2.58;0.95;;;33.90;65.40;;;;;;4973504;28;20039;-83
2023/09/05 12:13:41;;;;;;;2.10;1.00;;;33.70;67.20;;;;;;4960630;28;20058;-82
2023/09/05 12:16:07;;;;;;;1.23;1.13;;;33.90;66.50;;;;;;4969900;28;20506;-85
2023/09/05 12:18:33;;;;;;;1.27;1.00;;;33.60;65.30;;;;;;4973232;28;20160;-83
2023/09/05 12:21:00;;;;;;;1.60;1.17;;;33.80;64.70;;;;;;4956534;28;20497;-83
2023/09/05 12:23:29;;;;;;;1.35;0.90;;;34.30;63.90;;;;;;4954096;28;20041;-85
2023/09/05 12:25:57;;;;;;;0.82;0.82;;;34.80;63.70;;;;;;4973044;28;20038;-83
2023/09/05 12:28:24;;;;;;;2.97;0.98;;;34.40;62.90;;;;;;4975409;28;20292;-83
2023/09/05 12:30:50;;;;;;;1.88;1.10;;;34.60;64.10;;;;;;4970527;28;20050;-82
2023/09/05 12:33:16;;;;;;;2.15;1.30;;;35.40;62.80;;;;;;4970186;28;20034;-83
2023/09/05 12:35:42;;;;;;;0.90;0.90;;;34.30;64.10;;;;;;4971482;28;20034;-83
2023/09/05 12:38:09;;;;;;;0.70;0.70;;;34.70;66.30;;;;;;4973987;28;20495;-84
2023/09/05 12:40:35;;;;;;;1.35;1.05;;;34.60;64.80;;;;;;4972076;28;20548;-83
2023/09/05 12:43:01;;;;;;;0.82;0.82;;;35.00;64.30;;;;;;4971893;28;20130;-83
2023/09/05 12:45:26;;;;;;;2.13;1.02;;;35.10;65.00;;;;;;4955785;28;20153;-83
2023/09/05 12:47:52;;;;;;;1.05;0.80;;;34.40;62.50;;;;;;4975864;28;20057;-82